createdAt,value
2022-10-14T00:01:23.916Z,16.25
2022-10-14T00:03:52.705Z,17.80
2022-10-14T00:06:23.497Z,17.00
2022-10-14T00:08:53.027Z,19.10
2022-10-14T00:11:24.031Z,20.27
2022-10-14T00:13:54.685Z,18.17
2022-10-14T00:16:26.282Z,17.90
2022-10-14T00:18:54.475Z,18.38
2022-10-14T00:21:22.551Z,19.83
2022-10-14T00:23:52.074Z,20.42
2022-10-14T00:26:23.543Z,19.85
2022-10-14T00:28:52.757Z,19.27
2022-10-14T00:31:21.947Z,23.08
2022-10-14T00:33:50.238Z,16.38
2022-10-14T00:36:22.073Z,18.00
2022-10-14T00:38:50.471Z,18.77
2022-10-14T00:41:24.434Z,18.88
2022-10-14T00:43:58.233Z,20.48
2022-10-14T00:46:28.311Z,19.95
2022-10-14T00:48:57.693Z,25.95
2022-10-14T00:51:26.151Z,18.27
2022-10-14T00:53:54.304Z,21.95
2022-10-14T00:56:29.695Z,23.95
2022-10-14T00:58:59.090Z,21.50
2022-10-14T01:01:27.223Z,22.75
2022-10-14T01:03:55.399Z,18.02
2022-10-14T01:06:37.449Z,17.88
2022-10-14T01:09:19.414Z,17.60
2022-10-14T01:12:27.549Z,24.42
2022-10-14T01:15:04.963Z,19.48
2022-10-14T01:17:48.127Z,21.52
2022-10-14T01:20:48.968Z,21.70
2022-10-14T01:23:42.972Z,20.35
2022-10-14T01:26:37.869Z,21.67
2022-10-14T01:29:24.754Z,19.85
2022-10-14T01:32:04.525Z,22.88
2022-10-14T01:34:41.908Z,22.25
2022-10-14T01:37:18.782Z,23.40
2022-10-14T01:39:55.927Z,24.95
2022-10-14T01:42:28.419Z,23.77
2022-10-14T01:45:02.405Z,24.10
2022-10-14T01:47:36.665Z,22.02
2022-10-14T01:50:11.165Z,21.45
2022-10-14T01:52:47.095Z,18.95
2022-10-14T01:55:22.173Z,22.33
2022-10-14T01:57:54.692Z,27.50
2022-10-14T02:00:22.803Z,22.73
2022-10-14T02:02:52.252Z,24.55
2022-10-14T02:05:29.621Z,23.05
2022-10-14T02:08:10.708Z,24.10
2022-10-14T02:11:02.218Z,21.73
2022-10-14T02:13:59.495Z,25.83
2022-10-14T02:16:37.653Z,29.33
2022-10-14T02:19:22.205Z,22.48
2022-10-14T02:21:57.961Z,25.73
2022-10-14T02:24:33.663Z,26.20
2022-10-14T02:27:08.873Z,23.88
2022-10-14T02:29:41.410Z,22.05
2022-10-14T02:32:12.174Z,26.77
2022-10-14T02:34:44.881Z,26.02
2022-10-14T02:37:16.014Z,24.70
2022-10-14T02:39:53.063Z,25.17
2022-10-14T02:42:21.223Z,23.50
2022-10-14T02:44:59.055Z,24.67
2022-10-14T02:47:27.346Z,25.10
2022-10-14T02:49:56.943Z,23.92
2022-10-14T02:52:25.470Z,23.50
2022-10-14T02:54:53.475Z,24.33
2022-10-14T02:57:21.400Z,21.27
2022-10-14T02:59:49.412Z,21.38
2022-10-14T03:02:17.469Z,24.33
2022-10-14T03:04:45.400Z,23.05
2022-10-14T03:07:14.751Z,27.08
2022-10-14T03:09:42.750Z,21.17
2022-10-14T03:12:10.900Z,24.50
2022-10-14T03:14:39.122Z,25.42
2022-10-14T03:17:07.082Z,25.25
2022-10-14T03:19:35.531Z,24.13
2022-10-14T03:22:03.474Z,27.10
2022-10-14T03:24:32.939Z,24.52
2022-10-14T03:27:00.939Z,22.05
2022-10-14T03:29:28.964Z,23.70
2022-10-14T03:31:57.025Z,27.80
2022-10-14T03:34:25.151Z,21.45
2022-10-14T03:36:53.214Z,28.35
2022-10-14T03:39:21.434Z,23.48
2022-10-14T03:41:50.792Z,24.88
2022-10-14T03:44:18.840Z,29.23
2022-10-14T03:46:47.018Z,26.35
2022-10-14T03:49:15.042Z,21.15
2022-10-14T03:51:43.017Z,25.10
2022-10-14T03:54:11.078Z,24.42
2022-10-14T03:56:39.051Z,25.55
2022-10-14T03:59:08.501Z,25.73
2022-10-14T04:01:36.472Z,22.02
2022-10-14T04:04:04.585Z,23.45
2022-10-14T04:06:32.586Z,21.65
2022-10-14T04:09:00.587Z,22.10
2022-10-14T04:11:28.742Z,21.35
2022-10-14T04:13:59.301Z,23.52
2022-10-14T04:16:28.829Z,19.70
2022-10-14T04:18:58.409Z,21.92
2022-10-14T04:21:26.663Z,22.27
2022-10-14T04:23:54.911Z,19.52
2022-10-14T04:26:22.890Z,22.70
2022-10-14T04:28:51.331Z,26.00
2022-10-14T04:31:19.371Z,19.45
2022-10-14T04:34:22.919Z,23.45
2022-10-14T04:36:51.280Z,23.25
2022-10-14T04:39:20.493Z,24.10
2022-10-14T04:41:48.379Z,22.70
2022-10-14T04:44:16.329Z,20.75
2022-10-14T04:46:44.156Z,21.02
2022-10-14T04:49:14.643Z,23.35
2022-10-14T04:51:42.616Z,19.55
2022-10-14T04:54:11.109Z,26.00
2022-10-14T04:56:39.198Z,25.50
2022-10-14T04:59:07.509Z,18.98
2022-10-14T05:01:35.684Z,17.73
2022-10-14T05:04:03.800Z,18.90
2022-10-14T05:06:34.490Z,21.83
2022-10-14T05:09:02.446Z,18.80
2022-10-14T05:11:30.405Z,21.63
2022-10-14T05:13:59.009Z,20.45
2022-10-14T05:16:27.167Z,17.50
2022-10-14T05:18:55.192Z,19.80
2022-10-14T05:21:23.503Z,20.02
2022-10-14T05:23:52.773Z,17.65
2022-10-14T05:26:21.182Z,17.58
2022-10-14T05:28:49.221Z,18.15
2022-10-14T05:31:17.273Z,18.73
2022-10-14T05:33:45.278Z,18.55
2022-10-14T05:36:13.342Z,17.20
2022-10-14T05:38:41.414Z,16.70
2022-10-14T05:41:11.000Z,18.83
2022-10-14T05:43:39.050Z,19.05
2022-10-14T05:46:07.292Z,21.27
2022-10-14T05:48:35.391Z,20.42
2022-10-14T05:51:03.445Z,19.63
2022-10-14T05:53:32.522Z,19.17
2022-10-14T05:56:05.562Z,24.38
2022-10-14T05:58:35.441Z,17.80
2022-10-14T06:01:07.843Z,19.77
2022-10-14T06:03:36.191Z,17.73
2022-10-14T06:06:04.255Z,18.27
2022-10-14T06:08:32.417Z,18.60
2022-10-14T06:11:05.668Z,18.70
2022-10-14T06:13:35.843Z,17.70
2022-10-14T06:16:05.591Z,21.25
2022-10-14T06:18:33.889Z,16.15
2022-10-14T06:21:02.041Z,17.02
2022-10-14T06:23:30.622Z,19.00
2022-10-14T06:25:58.822Z,16.13
2022-10-14T06:28:27.477Z,16.45
2022-10-14T06:31:00.404Z,17.17
2022-10-14T06:33:29.742Z,17.40
2022-10-14T06:35:58.086Z,11.98
2022-10-14T06:38:26.279Z,14.07
2022-10-14T06:40:57.405Z,14.45
2022-10-14T06:43:25.763Z,14.10
2022-10-14T06:45:54.955Z,13.05
2022-10-14T06:48:24.429Z,13.60
2022-10-14T06:50:52.783Z,14.27
2022-10-14T06:53:20.961Z,12.52
2022-10-14T06:55:57.736Z,14.23
2022-10-14T06:58:26.025Z,14.07
2022-10-14T07:00:54.228Z,12.95
2022-10-14T07:03:24.205Z,11.90
2022-10-14T07:05:52.552Z,14.25
2022-10-14T07:08:23.524Z,11.70
2022-10-14T07:10:51.563Z,13.80
2022-10-14T07:13:20.400Z,12.50
2022-10-14T07:15:49.858Z,12.60
2022-10-14T07:18:18.002Z,10.95
2022-10-14T07:20:47.606Z,11.00
2022-10-14T07:23:16.012Z,11.05
2022-10-14T07:25:44.561Z,10.43
2022-10-14T07:28:12.789Z,11.55
2022-10-14T07:30:41.115Z,7.95
2022-10-14T07:33:09.477Z,7.95
2022-10-14T07:35:40.811Z,9.05
2022-10-14T07:38:10.484Z,8.13
2022-10-14T07:40:40.634Z,8.27
2022-10-14T07:43:09.009Z,8.07
2022-10-14T07:45:43.851Z,6.65
2022-10-14T07:48:11.918Z,5.90
2022-10-14T07:50:40.203Z,7.57
2022-10-14T07:53:24.726Z,7.38
2022-10-14T07:55:53.183Z,8.13
2022-10-14T07:58:22.980Z,6.72
2022-10-14T08:00:51.522Z,6.05
2022-10-14T08:03:21.566Z,6.97
2022-10-14T08:05:50.105Z,6.25
2022-10-14T08:08:19.871Z,6.07
2022-10-14T08:10:47.927Z,5.47
2022-10-14T08:13:15.873Z,7.25
2022-10-14T08:15:43.911Z,6.10
2022-10-14T08:18:12.278Z,6.18
2022-10-14T08:20:40.372Z,5.22
2022-10-14T08:23:08.373Z,4.80
2022-10-14T08:25:38.968Z,4.28
2022-10-14T08:28:07.104Z,4.07
2022-10-14T08:30:35.170Z,6.35
2022-10-14T08:33:03.095Z,5.57
2022-10-14T08:35:31.518Z,4.18
2022-10-14T08:38:00.277Z,4.60
2022-10-14T08:40:31.506Z,5.25
2022-10-14T08:43:08.616Z,6.15
2022-10-14T08:45:43.390Z,5.07
2022-10-14T08:48:17.414Z,5.13
2022-10-14T08:50:53.172Z,4.38
2022-10-14T08:53:28.262Z,5.82
2022-10-14T08:56:01.045Z,4.82
2022-10-14T08:58:38.374Z,5.22
2022-10-14T09:01:20.037Z,6.47
2022-10-14T09:03:48.221Z,4.43
2022-10-14T09:06:26.617Z,4.10
2022-10-14T09:08:59.012Z,3.42
2022-10-14T09:11:33.538Z,4.57
2022-10-14T09:14:08.767Z,4.13
2022-10-14T09:16:40.436Z,3.65
2022-10-14T09:19:19.634Z,4.15
2022-10-14T09:21:53.902Z,3.95
2022-10-14T09:24:26.470Z,3.53
2022-10-14T09:26:59.254Z,4.30
2022-10-14T09:29:31.578Z,3.13
2022-10-14T09:32:04.416Z,3.65
2022-10-14T09:34:37.431Z,3.63
2022-10-14T09:37:31.186Z,5.35
2022-10-14T09:40:05.739Z,4.30
2022-10-14T09:42:49.562Z,4.72
2022-10-14T09:45:22.707Z,4.20
2022-10-14T09:47:56.272Z,5.40
2022-10-14T09:50:30.679Z,3.85
2022-10-14T09:53:09.281Z,3.42
2022-10-14T09:55:48.641Z,5.13
2022-10-14T09:58:25.430Z,5.15
2022-10-14T10:00:59.042Z,5.55
2022-10-14T10:03:32.462Z,4.50
2022-10-14T10:06:07.611Z,3.65
2022-10-14T10:08:38.505Z,4.30
2022-10-14T10:11:10.454Z,3.83
2022-10-14T10:13:44.874Z,4.40
2022-10-14T10:16:24.670Z,4.15
2022-10-14T10:18:55.941Z,3.78
2022-10-14T10:21:27.058Z,2.75
2022-10-14T10:23:58.936Z,3.10
2022-10-14T10:26:31.483Z,4.05
2022-10-14T10:29:02.498Z,4.97
2022-10-14T10:32:07.848Z,3.78
2022-10-14T10:35:20.736Z,4.30
2022-10-14T10:38:09.950Z,3.33
2022-10-14T10:40:47.647Z,4.10
2022-10-14T10:43:49.250Z,3.78
2022-10-14T10:46:45.012Z,3.55
2022-10-14T10:49:27.107Z,3.08
2022-10-14T10:52:01.528Z,4.60
2022-10-14T10:54:43.897Z,4.20
2022-10-14T10:57:35.092Z,4.93
2022-10-14T11:00:09.762Z,4.50
2022-10-14T11:03:00.519Z,4.05
2022-10-14T11:05:50.404Z,3.63
2022-10-14T11:09:00.486Z,2.70
2022-10-14T11:11:52.405Z,2.60
2022-10-14T11:14:52.785Z,3.42
2022-10-14T11:20:29.921Z,3.10
2022-10-14T11:23:17.131Z,2.63
2022-10-14T11:25:55.609Z,3.75
2022-10-14T11:28:38.340Z,2.70
2022-10-14T11:31:24.175Z,3.13
2022-10-14T11:34:24.147Z,3.28
2022-10-14T11:37:08.508Z,2.50
2022-10-14T11:39:49.194Z,2.58
2022-10-14T11:42:35.202Z,3.38
2022-10-14T11:45:39.991Z,2.03
2022-10-14T11:48:31.054Z,2.65
2022-10-14T11:51:10.427Z,2.38
2022-10-14T11:54:00.572Z,2.83
2022-10-14T11:56:44.117Z,2.25
2022-10-14T11:59:28.090Z,3.10
2022-10-14T12:02:04.043Z,2.63
2022-10-14T12:04:38.460Z,2.95
2022-10-14T12:07:17.506Z,2.95
2022-10-14T12:09:57.357Z,2.15
2022-10-14T12:12:31.308Z,2.35
2022-10-14T12:15:05.147Z,2.55
2022-10-14T12:17:42.240Z,2.53
2022-10-14T12:20:30.121Z,1.58
2022-10-14T12:23:00.542Z,2.13
2022-10-14T12:25:39.877Z,2.33
2022-10-14T12:28:13.665Z,3.22
2022-10-14T12:30:43.352Z,1.70
2022-10-14T12:33:15.839Z,1.83
2022-10-14T12:35:59.363Z,2.10
2022-10-14T12:38:30.412Z,2.35
2022-10-14T12:41:40.467Z,2.70
2022-10-14T12:44:18.637Z,2.67
2022-10-14T12:46:49.437Z,1.60
2022-10-14T12:49:37.365Z,1.90
2022-10-14T12:52:09.817Z,1.80
2022-10-14T12:54:47.859Z,1.33
2022-10-14T12:57:28.817Z,1.42
2022-10-14T13:00:01.236Z,1.80
2022-10-14T13:02:35.281Z,2.00
2022-10-14T13:05:08.180Z,2.05
2022-10-14T13:07:44.759Z,1.85
2022-10-14T13:11:09.969Z,2.20
2022-10-14T13:14:02.184Z,1.75
2022-10-14T13:16:58.025Z,1.83
2022-10-14T13:19:45.355Z,2.00
2022-10-14T13:22:41.921Z,2.28
2022-10-14T13:25:21.567Z,2.63
2022-10-14T13:28:04.631Z,2.35
2022-10-14T13:31:02.273Z,2.13
2022-10-14T13:33:41.696Z,2.75
2022-10-14T13:36:17.829Z,3.72
2022-10-14T13:39:03.826Z,2.75
2022-10-14T13:41:34.557Z,3.50
2022-10-14T13:44:03.678Z,3.17
2022-10-14T13:46:40.155Z,3.30
2022-10-14T13:51:53.548Z,3.67
2022-10-14T13:54:24.791Z,2.53
2022-10-14T14:02:55.133Z,4.78
2022-10-14T14:05:27.752Z,3.70
2022-10-14T14:11:23.105Z,5.03
2022-10-14T14:14:01.408Z,6.07
2022-10-14T14:16:35.116Z,7.10
2022-10-14T14:19:10.234Z,5.20
2022-10-14T14:21:51.367Z,6.95
2022-10-14T14:24:29.368Z,6.43
2022-10-14T14:26:57.945Z,4.88
2022-10-14T14:29:29.374Z,4.72
2022-10-14T14:32:06.679Z,5.60
2022-10-14T14:37:48.219Z,4.57
2022-10-14T14:40:23.405Z,4.55
2022-10-14T14:42:58.594Z,5.38
2022-10-14T14:45:33.106Z,4.45
2022-10-14T14:48:07.201Z,5.40
2022-10-14T14:50:42.724Z,5.30
2022-10-14T14:53:17.098Z,5.97
2022-10-14T14:55:49.164Z,6.70
2022-10-14T14:58:28.590Z,4.97
2022-10-14T15:00:57.106Z,7.05
2022-10-14T15:03:29.351Z,5.13
2022-10-14T15:06:01.784Z,4.25
2022-10-14T15:08:34.679Z,4.57
2022-10-14T15:11:02.939Z,6.47
2022-10-14T15:13:45.890Z,8.20
2022-10-14T15:16:13.890Z,6.00
2022-10-14T15:18:43.462Z,7.68
2022-10-14T15:21:23.452Z,7.88
2022-10-14T15:24:03.260Z,4.32
2022-10-14T15:26:35.514Z,6.32
2022-10-14T15:29:15.100Z,6.25
2022-10-14T15:31:46.555Z,6.82
2022-10-14T15:34:24.194Z,5.35
2022-10-14T15:36:54.246Z,5.32
2022-10-14T15:39:23.361Z,5.93
2022-10-14T15:41:51.352Z,5.82
2022-10-14T15:44:19.620Z,5.15
2022-10-14T15:47:05.625Z,7.07
2022-10-14T15:49:43.653Z,5.32
2022-10-14T15:52:16.822Z,4.25
2022-10-14T15:54:46.130Z,7.38
2022-10-14T15:57:16.577Z,3.50
2022-10-14T15:59:47.858Z,4.65
2022-10-14T16:02:21.145Z,3.67
2022-10-14T16:05:18.380Z,4.75
2022-10-14T16:07:42.417Z,4.18
2022-10-14T16:10:15.035Z,2.80
2022-10-14T16:12:43.306Z,3.55
2022-10-14T16:15:31.997Z,3.15
2022-10-14T16:18:00.393Z,2.95
2022-10-14T16:20:33.380Z,3.63
2022-10-14T16:23:04.508Z,3.20
2022-10-14T16:25:38.857Z,2.90
2022-10-14T16:28:09.957Z,3.72
2022-10-14T16:30:43.889Z,3.85
2022-10-14T16:35:47.500Z,3.47
2022-10-14T16:38:16.910Z,5.50
2022-10-14T16:40:56.149Z,3.67
2022-10-14T16:43:24.422Z,3.50
2022-10-14T16:45:52.423Z,4.50
2022-10-14T16:48:21.712Z,3.22
2022-10-14T16:50:50.970Z,5.07
2022-10-14T16:53:35.573Z,3.67
2022-10-14T16:56:03.758Z,3.03
2022-10-14T16:58:31.816Z,3.80
2022-10-14T17:00:59.801Z,5.25
2022-10-14T17:03:29.239Z,3.28
2022-10-14T17:05:59.958Z,4.00
2022-10-14T17:08:29.251Z,3.83
2022-10-14T17:10:58.774Z,3.78
2022-10-14T17:13:26.896Z,3.53
2022-10-14T17:16:01.838Z,4.30
2022-10-14T17:18:34.536Z,3.80
2022-10-14T17:21:05.451Z,7.75
2022-10-14T17:23:34.892Z,4.88
2022-10-14T17:26:04.126Z,3.92
2022-10-14T17:28:33.076Z,4.60
2022-10-14T17:31:02.003Z,3.60
2022-10-14T17:33:29.939Z,3.72
2022-10-14T17:35:59.670Z,3.67
2022-10-14T17:38:30.059Z,6.70
2022-10-14T17:41:04.806Z,7.05
2022-10-14T17:43:33.065Z,4.72
2022-10-14T17:46:05.902Z,4.18
2022-10-14T17:48:35.643Z,6.50
2022-10-14T17:51:07.079Z,5.22
2022-10-14T17:53:35.046Z,5.30
2022-10-14T17:56:06.133Z,5.60
2022-10-14T17:58:34.563Z,5.55
2022-10-14T18:01:06.437Z,5.40
2022-10-14T18:03:35.323Z,7.45
2022-10-14T18:06:12.369Z,5.82
2022-10-14T18:08:41.190Z,4.97
2022-10-14T18:11:12.311Z,7.25
2022-10-14T18:13:41.506Z,6.65
2022-10-14T18:16:12.419Z,5.88
2022-10-14T18:18:41.673Z,5.80
2022-10-14T18:21:11.036Z,5.57
2022-10-14T18:23:41.607Z,9.15
2022-10-14T18:26:14.306Z,11.95
2022-10-14T18:28:45.094Z,7.85
2022-10-14T18:31:15.926Z,7.75
2022-10-14T18:33:44.995Z,7.35
2022-10-14T18:36:17.291Z,7.10
2022-10-14T18:38:50.971Z,8.45
2022-10-14T18:41:21.590Z,8.05
2022-10-14T18:43:50.200Z,6.60
2022-10-14T18:46:22.042Z,10.32
2022-10-14T18:48:52.655Z,8.18
2022-10-14T18:51:25.733Z,7.10
2022-10-14T18:53:56.986Z,8.88
2022-10-14T18:56:28.926Z,8.98
2022-10-14T18:59:01.194Z,8.40
2022-10-14T19:01:30.323Z,7.35
2022-10-14T19:03:58.658Z,7.72
2022-10-14T19:06:26.935Z,6.97
2022-10-14T19:08:55.293Z,8.68
2022-10-14T19:11:26.404Z,7.75
2022-10-14T19:13:56.934Z,6.60
2022-10-14T19:16:27.623Z,9.98
2022-10-14T19:18:57.514Z,14.40
2022-10-14T19:21:29.976Z,13.93
2022-10-14T19:23:59.146Z,10.75
2022-10-14T19:26:32.501Z,10.48
2022-10-14T19:29:04.295Z,10.88
2022-10-14T19:31:36.901Z,10.02
2022-10-14T19:34:07.286Z,9.85
2022-10-14T19:36:37.453Z,10.43
2022-10-14T19:39:07.963Z,9.73
2022-10-14T19:41:42.755Z,10.70
2022-10-14T19:44:12.211Z,12.32
2022-10-14T19:46:40.669Z,10.68
2022-10-14T19:49:08.604Z,13.30
2022-10-14T19:51:36.850Z,11.65
2022-10-14T19:54:05.105Z,13.80
2022-10-14T19:56:33.029Z,11.02
2022-10-14T19:59:02.612Z,11.50
2022-10-14T20:01:32.054Z,10.45
2022-10-14T20:04:01.954Z,10.75
2022-10-14T20:06:33.143Z,13.52
2022-10-14T20:09:01.359Z,12.38
2022-10-14T20:11:29.971Z,11.52
2022-10-14T20:13:58.137Z,11.95
2022-10-14T20:16:28.026Z,10.07
2022-10-14T20:18:56.449Z,10.73
2022-10-14T20:21:24.692Z,9.15
2022-10-14T20:23:52.810Z,10.85
2022-10-14T20:26:22.967Z,10.38
2022-10-14T20:28:51.620Z,11.82
2022-10-14T20:31:24.996Z,11.43
2022-10-14T20:33:56.918Z,11.95
2022-10-14T20:36:25.301Z,10.45
2022-10-14T20:38:53.353Z,11.32
2022-10-14T20:41:25.282Z,11.07
2022-10-14T20:43:55.103Z,9.30
2022-10-14T20:46:24.416Z,9.65
2022-10-14T20:48:56.740Z,9.35
2022-10-14T20:51:25.493Z,12.07
2022-10-14T20:54:01.730Z,11.02
2022-10-14T20:56:34.150Z,11.15
2022-10-14T20:59:04.314Z,12.38
2022-10-14T21:01:36.187Z,11.10
2022-10-14T21:04:08.468Z,12.60
2022-10-14T21:06:38.540Z,11.82
2022-10-14T21:09:07.298Z,12.50
2022-10-14T21:11:35.384Z,11.40
2022-10-14T21:14:03.909Z,11.40
2022-10-14T21:16:35.040Z,13.02
2022-10-14T21:19:07.982Z,11.60
2022-10-14T21:21:38.913Z,15.10
2022-10-14T21:24:07.768Z,12.65
2022-10-14T21:26:35.864Z,14.70
2022-10-14T21:29:04.650Z,13.35
2022-10-14T21:31:33.142Z,11.50
2022-10-14T21:34:06.224Z,10.95
2022-10-14T21:36:37.084Z,13.63
2022-10-14T21:39:09.774Z,14.88
2022-10-14T21:41:39.061Z,13.20
2022-10-14T21:44:08.043Z,17.13
2022-10-14T21:46:37.313Z,15.00
2022-10-14T21:49:05.299Z,13.27
2022-10-14T21:51:35.229Z,15.18
2022-10-14T21:54:03.995Z,14.38
2022-10-14T21:56:34.108Z,14.25
2022-10-14T21:59:02.010Z,14.55
2022-10-14T22:01:31.198Z,13.55
2022-10-14T22:04:03.574Z,13.93
2022-10-14T22:06:32.944Z,12.43
2022-10-14T22:09:05.517Z,13.27
2022-10-14T22:11:37.197Z,13.77
2022-10-14T22:14:10.659Z,12.38
2022-10-14T22:16:39.098Z,12.23
2022-10-14T22:19:08.088Z,13.10
2022-10-14T22:21:38.933Z,12.57
2022-10-14T22:24:09.878Z,13.68
2022-10-14T22:26:38.617Z,15.38
2022-10-14T22:29:10.335Z,15.90
2022-10-14T22:31:38.436Z,10.38
2022-10-14T22:34:09.051Z,12.43
2022-10-14T22:36:37.608Z,12.27
2022-10-14T22:39:09.714Z,12.75
2022-10-14T22:41:37.782Z,13.30
2022-10-14T22:44:08.287Z,14.32
2022-10-14T22:46:39.045Z,14.77
2022-10-14T22:49:07.335Z,12.43
2022-10-14T22:51:40.112Z,12.18
2022-10-14T22:54:10.484Z,9.85
2022-10-14T22:56:39.250Z,12.23
2022-10-14T22:59:10.643Z,13.75
2022-10-14T23:01:40.018Z,10.80
2022-10-14T23:04:08.351Z,12.93
2022-10-14T23:06:37.023Z,12.00
2022-10-14T23:09:05.553Z,11.48
2022-10-14T23:11:36.070Z,12.32
2022-10-14T23:14:20.300Z,13.35
2022-10-14T23:16:48.193Z,12.05
2022-10-14T23:19:16.093Z,11.45
2022-10-14T23:21:44.100Z,12.13
2022-10-14T23:24:12.905Z,12.82
2022-10-14T23:26:42.132Z,11.43
2022-10-14T23:29:12.570Z,12.23
2022-10-14T23:31:41.880Z,11.30
2022-10-14T23:34:14.281Z,14.30
2022-10-14T23:36:43.155Z,11.57
2022-10-14T23:39:11.915Z,12.57
2022-10-14T23:41:40.217Z,14.13
2022-10-14T23:44:11.515Z,15.05
2022-10-14T23:46:39.488Z,13.45
2022-10-14T23:49:24.478Z,12.80
2022-10-14T23:51:56.045Z,14.32
2022-10-14T23:54:24.574Z,14.73
2022-10-14T23:56:53.206Z,13.45
2022-10-14T23:59:22.797Z,13.95
